Time;durP1;ratioP1;P1;durP2;ratioP2;P2;SDS_P1;SDS_P2;PMS_P1;PMS_P2;Temp;Humidity;BMP_temperature;BMP_pressure;BME280_temperature;BME280_humidity;BME280_pressure;Samples;Min_cycle;Max_cycle;Signal;HPM_P1;HPM_P2
2023/07/03 00:02:24;;;;;;;19.77;4.90;;;;;;;15.74;65.37;100849.78;5075676;28;20127;-74
2023/07/03 00:04:50;;;;;;;20.52;5.32;;;;;;;15.72;65.19;100849.06;5081663;28;20476;-74
2023/07/03 00:07:15;;;;;;;17.92;4.80;;;;;;;15.73;65.28;100851.63;5060189;28;20047;-74
2023/07/03 00:09:43;;;;;;;19.35;5.50;;;;;;;15.70;65.71;100838.38;5063308;28;20174;-74
2023/07/03 00:12:10;;;;;;;20.85;5.18;;;;;;;15.73;65.52;100837.22;5078005;28;20495;-73
2023/07/03 00:14:35;;;;;;;21.77;5.70;;;;;;;15.70;65.75;100841.06;5082351;28;20056;-73
2023/07/03 00:17:01;;;;;;;20.42;5.43;;;;;;;15.71;65.48;100837.38;5064252;28;20109;-73
2023/07/03 00:19:30;;;;;;;18.08;4.80;;;;;;;15.70;65.39;100843.78;5082477;28;20032;-73
2023/07/03 00:22:00;;;;;;;;;;;;;;;15.77;64.96;100840.50;5082080;28;20024;-73
2023/07/03 00:24:26;;;;;;;22.75;5.45;;;;;;;15.71;66.03;100847.34;5082826;28;19985;-73
2023/07/03 00:26:51;;;;;;;18.55;4.75;;;;;;;15.67;66.03;100838.66;5081618;28;20024;-74
2023/07/03 00:29:16;;;;;;;20.10;5.38;;;;;;;15.68;66.08;100839.50;5078576;28;20077;-74
2023/07/03 00:31:41;;;;;;;21.30;4.80;;;;;;;15.66;66.59;100836.94;5062885;28;20025;-73
2023/07/03 00:34:07;;;;;;;22.58;5.28;;;;;;;15.62;66.58;100838.22;5083581;28;20036;-75
2023/07/03 00:36:32;;;;;;;24.95;5.53;;;;;;;15.64;66.93;100832.69;5076424;28;20047;-74
2023/07/03 00:38:59;;;;;;;20.23;5.22;;;;;;;15.65;66.81;100832.56;5081446;28;20071;-74
2023/07/03 00:41:25;;;;;;;24.75;5.15;;;;;;;15.62;67.05;100840.94;5053011;28;20033;-74
2023/07/03 00:43:51;;;;;;;21.23;5.43;;;;;;;15.63;66.98;100833.69;5085538;28;20085;-74
2023/07/03 00:46:16;;;;;;;16.55;4.90;;;;;;;15.60;66.85;100834.81;5067863;28;20039;-74
2023/07/03 00:48:42;;;;;;;22.92;4.68;;;;;;;15.58;67.84;100833.25;5087281;28;20093;-73
2023/07/03 00:51:10;;;;;;;24.70;5.35;;;;;;;15.58;67.51;100833.25;5082083;28;20024;-73
2023/07/03 00:53:35;;;;;;;20.88;5.28;;;;;;;15.55;67.43;100834.44;5084518;28;20028;-73
2023/07/03 00:56:03;;;;;;;16.05;4.80;;;;;;;15.53;67.93;100833.69;5070254;28;20032;-73
2023/07/03 00:58:28;;;;;;;20.67;5.18;;;;;;;15.56;67.96;100830.69;5082656;28;20020;-74
2023/07/03 01:01:01;;;;;;;23.08;5.65;;;;;;;15.56;67.96;100830.69;5084171;28;20110;-74
2023/07/03 01:03:35;;;;;;;19.02;4.88;;;;;;;15.55;67.86;100829.00;5086839;28;20051;-74
2023/07/03 01:06:05;;;;;;;21.27;5.30;;;;;;;15.52;68.28;100829.28;5061027;28;20028;-74
2023/07/03 01:08:31;;;;;;;23.77;5.50;;;;;;;15.53;68.29;100826.44;5083895;28;20081;-73
2023/07/03 01:10:57;;;;;;;20.85;4.97;;;;;;;15.50;68.54;100824.00;5075204;28;20119;-74
2023/07/03 01:13:26;;;;;;;21.48;5.22;;;;;;;15.50;68.79;100826.72;5080304;28;20040;-73
2023/07/03 01:15:53;;;;;;;20.75;5.20;;;;;;;15.53;69.37;100823.75;5075992;28;20031;-74
2023/07/03 01:18:19;;;;;;;22.75;5.70;;;;;;;15.49;68.87;100829.56;5082243;28;20071;-74
2023/07/03 01:20:57;;;;;;;20.88;5.10;;;;;;;15.49;68.90;100829.56;5057318;28;20427;-74
2023/07/03 01:23:40;;;;;;;21.40;5.20;;;;;;;15.46;69.32;100824.44;5076982;28;20441;-74
2023/07/03 01:26:10;;;;;;;18.75;5.25;;;;;;;15.42;69.42;100823.03;5058589;28;20032;-74
2023/07/03 01:28:37;;;;;;;20.52;4.75;;;;;;;15.41;70.25;100829.47;5084253;28;20383;-73
2023/07/03 01:31:07;;;;;;;23.45;4.85;;;;;;;15.35;70.44;100818.19;5064010;28;20460;-73
2023/07/03 01:33:34;;;;;;;20.83;5.45;;;;;;;15.33;70.75;100831.03;5059925;28;20119;-73
2023/07/03 01:36:01;;;;;;;24.10;5.47;;;;;;;15.32;70.70;100826.59;5080031;28;20124;-74
2023/07/03 01:38:29;;;;;;;26.38;5.47;;;;;;;15.31;70.80;100827.59;5086098;28;20039;-73
2023/07/03 01:40:56;;;;;;;23.20;5.72;;;;;;;15.32;71.60;100820.34;5060344;28;20123;-74
2023/07/03 01:43:22;;;;;;;21.73;5.20;;;;;;;15.29;71.43;100821.47;5084184;28;20029;-73
2023/07/03 01:45:48;;;;;;;20.33;6.13;;;;;;;15.29;71.43;100821.47;5085062;28;20104;-74
2023/07/03 01:48:15;;;;;;;20.92;5.30;;;;;;;15.26;71.48;100820.94;5067542;28;20030;-74
2023/07/03 01:50:41;;;;;;;21.50;5.25;;;;;;;15.23;72.20;100818.47;5063026;28;20026;-74
2023/07/03 01:53:16;;;;;;;24.08;5.68;;;;;;;15.20;71.93;100819.66;5080652;28;20070;-73
2023/07/03 01:56:10;;;;;;;20.13;5.13;;;;;;;15.22;72.60;100814.94;5054313;28;20024;-74
2023/07/03 01:58:55;;;;;;;22.88;5.72;;;;;;;15.20;72.25;100822.34;5072752;28;20071;-74
2023/07/03 02:01:34;;;;;;;22.70;4.85;;;;;;;15.17;72.60;100818.06;5055189;28;20036;-74
2023/07/03 02:04:09;;;;;;;24.90;5.35;;;;;;;15.16;73.04;100819.06;5079416;28;20169;-73
2023/07/03 02:06:44;;;;;;;23.27;5.68;;;;;;;15.15;72.77;100809.25;5060571;28;20116;-73
2023/07/03 02:09:10;;;;;;;22.85;5.32;;;;;;;15.12;73.40;100816.78;5081544;28;20059;-73
2023/07/03 02:11:35;;;;;;;23.27;5.50;;;;;;;15.06;73.81;100806.53;5062503;28;20029;-74
2023/07/03 02:14:01;;;;;;;25.17;6.18;;;;;;;15.06;74.25;100812.78;5060914;28;20092;-73
2023/07/03 02:16:29;;;;;;;29.95;5.97;;;;;;;15.02;74.42;100806.81;5057318;28;20025;-74
2023/07/03 02:18:55;;;;;;;23.00;6.07;;;;;;;15.03;74.74;100805.81;5083712;28;20040;-73
2023/07/03 02:21:20;;;;;;;26.33;5.85;;;;;;;15.05;74.75;100804.81;5080508;28;20064;-73
2023/07/03 02:23:47;;;;;;;18.75;5.55;;;;;;;14.97;75.46;100800.97;5081779;28;20032;-74
2023/07/03 02:26:13;;;;;;;18.33;5.20;;;;;;;14.93;76.13;100802.25;5082702;28;20120;-73
2023/07/03 02:28:40;;;;;;;22.13;5.50;;;;;;;14.91;76.24;100806.97;5079241;28;20051;-74
2023/07/03 02:31:08;;;;;;;28.40;7.18;;;;;;;14.88;76.62;100799.13;5085704;28;20424;-73
2023/07/03 02:33:33;;;;;;;21.73;5.70;;;;;;;14.87;76.93;100797.41;5081013;28;20096;-73
2023/07/03 02:36:03;;;;;;;22.65;5.53;;;;;;;14.82;77.46;100797.84;5084245;28;20036;-74
2023/07/03 02:38:28;;;;;;;;;;;;;;;14.89;75.41;100797.25;5086767;28;20016;-73
2023/07/03 02:40:53;;;;;;;31.63;6.78;;;;;;;14.83;77.40;100795.97;5086866;28;20027;-74
2023/07/03 02:43:18;;;;;;;24.70;6.28;;;;;;;14.78;78.27;100796.41;5086554;28;20032;-74
2023/07/03 02:45:44;;;;;;;18.80;5.10;;;;;;;14.72;78.39;100794.28;5062415;28;20088;-73
2023/07/03 02:48:10;;;;;;;27.42;6.40;;;;;;;14.71;79.25;100797.13;5067517;28;20115;-74
2023/07/03 02:50:36;;;;;;;30.42;5.60;;;;;;;14.68;79.48;100791.00;5071369;28;20068;-73
2023/07/03 02:53:01;;;;;;;24.15;6.28;;;;;;;14.64;79.76;100786.88;5068572;28;20100;-73
2023/07/03 02:55:27;;;;;;;26.50;5.70;;;;;;;14.66;80.14;100789.44;5059947;28;20029;-73
2023/07/03 02:57:54;;;;;;;25.60;5.80;;;;;;;14.62;80.32;100782.59;5063362;28;20448;-73
2023/07/03 03:00:20;;;;;;;26.15;6.82;;;;;;;14.57;80.73;100787.50;5085144;28;20031;-74
2023/07/03 03:02:45;;;;;;;28.15;5.55;;;;;;;14.54;81.17;100785.97;5059127;28;20036;-73
2023/07/03 03:05:13;;;;;;;30.40;6.72;;;;;;;14.50;81.51;100788.09;5058615;28;20496;-74
2023/07/03 03:07:38;;;;;;;22.38;5.50;;;;;;;14.51;81.69;100786.25;5089035;28;20024;-73
2023/07/03 03:10:04;;;;;;;27.60;6.22;;;;;;;14.50;82.20;100790.78;5081444;28;20032;-74
2023/07/03 03:12:29;;;;;;;31.25;6.82;;;;;;;14.44;82.84;100777.81;5078874;28;20029;-74
2023/07/03 03:14:55;;;;;;;25.60;6.70;;;;;;;14.45;83.14;100786.78;5061157;28;20032;-73
2023/07/03 03:17:20;;;;;;;21.58;5.30;;;;;;;14.45;83.46;100784.09;5064200;28;20047;-74
2023/07/03 03:19:45;;;;;;;27.67;6.88;;;;;;;14.43;83.67;100781.53;5083268;28;20555;-73
2023/07/03 03:22:11;;;;;;;26.65;6.65;;;;;;;14.46;83.87;100783.09;5081598;28;20057;-73
2023/07/03 03:24:36;;;;;;;28.35;6.10;;;;;;;14.43;84.01;100775.28;5084863;28;20055;-74
2023/07/03 03:27:06;;;;;;;23.40;6.18;;;;;;;14.44;84.25;100774.28;5081922;28;20024;-75
2023/07/03 03:29:36;;;;;;;23.83;6.22;;;;;;;14.43;84.31;100772.56;5078922;28;20028;-73
2023/07/03 03:32:03;;;;;;;20.40;5.65;;;;;;;14.42;84.64;100787.06;5067203;28;20047;-74
2023/07/03 03:34:28;;;;;;;23.88;5.65;;;;;;;14.44;85.17;100774.28;5083467;28;20020;-73
2023/07/03 03:36:54;;;;;;;26.63;7.50;;;;;;;14.40;85.45;100778.25;5083631;28;20039;-74
2023/07/03 03:39:20;;;;;;;30.88;7.32;;;;;;;14.37;85.44;100779.38;5086295;28;20043;-73
2023/07/03 03:41:45;;;;;;;29.08;6.68;;;;;;;14.36;86.53;100783.06;5065180;28;20035;-73
2023/07/03 03:44:10;;;;;;;25.90;6.05;;;;;;;14.32;86.39;100778.97;5065322;28;20024;-73
2023/07/03 03:46:36;;;;;;;23.15;6.65;;;;;;;14.28;86.63;100781.06;5082421;28;20503;-73
2023/07/03 03:49:01;;;;;;;23.30;6.78;;;;;;;14.28;86.88;100778.34;5087392;28;20036;-73
2023/07/03 03:51:27;;;;;;;28.00;6.53;;;;;;;14.31;87.35;100775.38;5082601;28;20386;-73
2023/07/03 03:53:54;;;;;;;27.38;7.15;;;;;;;14.22;87.62;100776.22;5075016;28;20024;-73
2023/07/03 03:56:20;;;;;;;27.10;6.53;;;;;;;14.28;88.02;100781.06;5064348;28;20425;-73
2023/07/03 03:58:46;;;;;;;28.77;7.32;;;;;;;14.24;88.17;100785.03;5083648;28;20110;-73
2023/07/03 04:01:13;;;;;;;25.13;6.95;;;;;;;14.23;88.11;100777.06;5085205;28;20051;-74
2023/07/03 04:03:38;;;;;;;23.40;5.88;;;;;;;14.23;88.60;100787.88;5082385;28;20036;-73
2023/07/03 04:06:04;;;;;;;26.63;7.18;;;;;;;14.22;88.89;100787.03;5065347;28;20055;-73
2023/07/03 04:08:30;;;;;;;27.15;6.68;;;;;;;14.26;89.00;100784.88;5087022;28;20024;-73
2023/07/03 04:10:55;;;;;;;28.40;6.82;;;;;;;14.25;89.49;100785.91;5077393;28;20085;-74
2023/07/03 04:13:21;;;;;;;26.65;6.57;;;;;;;14.21;89.70;100779.91;5060427;28;20024;-73
2023/07/03 04:15:57;;;;;;;28.20;7.55;;;;;;;14.23;90.22;100782.47;5082955;28;20048;-73
2023/07/03 04:18:23;;;;;;;28.08;7.47;;;;;;;14.24;90.14;100785.03;5064392;28;20032;-74
2023/07/03 04:20:49;;;;;;;29.30;7.82;;;;;;;14.25;90.27;100789.47;5082385;28;20523;-74
2023/07/03 04:23:15;;;;;;;24.50;7.25;;;;;;;14.28;90.54;100785.63;5080483;28;20032;-73
2023/07/03 04:25:45;;;;;;;24.27;6.20;;;;;;;14.30;90.64;100795.28;5061851;28;20060;-73
2023/07/03 04:28:11;;;;;;;26.63;7.68;;;;;;;14.28;91.03;100781.06;5085434;28;20106;-73
2023/07/03 04:30:37;;;;;;;23.40;7.05;;;;;;;14.31;91.01;100780.78;5069363;28;20506;-73
2023/07/03 04:33:02;;;;;;;23.25;6.35;;;;;;;14.31;91.15;100774.53;5078022;28;20132;-73
2023/07/03 04:35:27;;;;;;;30.15;8.05;;;;;;;14.33;91.28;100783.34;5059882;28;20024;-74
2023/07/03 04:37:53;;;;;;;30.08;7.53;;;;;;;14.36;91.27;100780.38;5059508;28;20022;-73
2023/07/03 04:40:18;;;;;;;25.08;7.18;;;;;;;14.36;91.29;100780.38;5066872;28;20024;-73
2023/07/03 04:42:44;;;;;;;24.08;6.65;;;;;;;14.38;91.13;100785.63;5079737;28;20105;-74
2023/07/03 04:45:10;;;;;;;28.60;7.43;;;;;;;14.39;91.60;100787.34;5055822;28;20074;-74
2023/07/03 04:47:39;;;;;;;30.15;7.20;;;;;;;14.37;91.57;100794.75;5067043;28;20016;-72
2023/07/03 04:50:10;;;;;;;28.20;7.57;;;;;;;14.42;92.08;100789.78;5083723;28;20089;-74
2023/07/03 04:52:38;;;;;;;26.77;6.70;;;;;;;14.43;91.78;100792.34;5055694;28;20111;-74
2023/07/03 04:55:08;;;;;;;22.70;7.00;;;;;;;14.43;91.69;100795.03;5064847;28;20074;-74
2023/07/03 04:57:38;;;;;;;22.80;6.30;;;;;;;14.48;92.08;100800.03;5071275;28;20056;-74
2023/07/03 05:00:17;;;;;;;28.73;8.07;;;;;;;14.46;91.51;100802.03;5080229;28;20028;-73
2023/07/03 05:02:44;;;;;;;27.37;7.27;;;;;;;14.45;91.69;100806.59;5082637;28;20094;-73
2023/07/03 05:05:13;;;;;;;30.85;6.90;;;;;;;14.48;91.60;100800.91;5082624;28;20135;-74
2023/07/03 05:07:39;;;;;;;29.90;7.13;;;;;;;14.54;91.99;100801.31;5066537;28;20021;-74
2023/07/03 05:10:07;;;;;;;28.38;7.22;;;;;;;14.61;91.83;100806.09;5086303;28;20133;-74
2023/07/03 05:12:33;;;;;;;28.67;6.03;;;;;;;14.62;91.74;100804.22;5075116;28;20048;-74
2023/07/03 05:14:58;;;;;;;26.02;6.22;;;;;;;14.71;90.96;100819.59;5063186;28;20127;-73
2023/07/03 05:17:23;;;;;;;30.50;7.40;;;;;;;14.75;91.35;100815.63;5062735;28;20032;-74
2023/07/03 05:19:49;;;;;;;28.70;7.13;;;;;;;14.80;91.08;100812.50;5066170;28;20020;-74
2023/07/03 05:22:15;;;;;;;24.90;6.22;;;;;;;14.83;90.36;100810.38;5079697;28;20177;-74
2023/07/03 05:24:40;;;;;;;23.70;7.32;;;;;;;14.89;91.23;100816.22;5079287;28;20024;-74
2023/07/03 05:27:08;;;;;;;26.33;6.82;;;;;;;14.98;90.51;100816.22;5062945;28;20016;-74
2023/07/03 05:29:34;;;;;;;23.95;6.88;;;;;;;15.03;89.37;100827.47;5084589;28;20113;-73
2023/07/03 05:32:00;;;;;;;24.10;6.97;;;;;;;15.09;89.43;100827.91;5081705;28;20089;-74
2023/07/03 05:34:26;;;;;;;24.63;6.68;;;;;;;15.12;89.28;100827.63;5055062;28;20128;-75
2023/07/03 05:36:52;;;;;;;22.67;6.45;;;;;;;15.14;nan;100823.78;5058436;28;20669;-73
2023/07/03 05:39:17;;;;;;;23.55;6.45;;;;;;;15.22;89.29;100831.16;5064755;28;20020;-74
2023/07/03 05:41:42;;;;;;;22.00;6.45;;;;;;;15.22;88.82;100827.63;5074389;28;20020;-74
2023/07/03 05:44:07;;;;;;;24.30;6.72;;;;;;;15.26;88.36;100832.59;5049797;28;20055;-73
2023/07/03 05:46:33;;;;;;;20.95;6.43;;;;;;;15.29;88.57;100829.59;5058258;28;20483;-74
2023/07/03 05:48:58;;;;;;;26.20;6.68;;;;;;;15.31;87.96;100837.56;5075150;28;20532;-74
2023/07/03 05:51:24;;;;;;;27.30;6.40;;;;;;;15.33;88.07;100836.44;5058012;28;20037;-73
2023/07/03 05:53:50;;;;;;;27.90;7.40;;;;;;;15.36;87.62;100833.44;5059534;28;20047;-73
2023/07/03 05:56:16;;;;;;;26.35;7.18;;;;;;;15.36;87.87;100838.88;5075822;28;20028;-75
2023/07/03 05:58:41;;;;;;;26.23;6.68;;;;;;;15.41;87.69;100829.47;5080117;28;20035;-74
2023/07/03 06:01:06;;;;;;;32.38;7.70;;;;;;;15.41;87.74;100832.16;5062707;28;20102;-74
2023/07/03 06:03:32;;;;;;;22.65;6.35;;;;;;;15.45;87.90;100839.84;5086162;28;20031;-73
2023/07/03 06:05:58;;;;;;;26.20;6.88;;;;;;;15.49;87.75;100834.97;5070466;28;20040;-73
2023/07/03 06:08:23;;;;;;;24.88;7.32;;;;;;;15.52;87.62;100831.97;5069641;28;20054;-73
2023/07/03 06:10:49;;;;;;;23.30;7.18;;;;;;;15.53;87.40;100837.28;5059325;28;20035;-73
2023/07/03 06:13:15;;;;;;;24.95;7.20;;;;;;;15.56;86.46;100830.69;5086627;28;20039;-74
2023/07/03 06:15:41;;;;;;;22.77;5.68;;;;;;;15.59;87.99;100833.09;5085893;28;20027;-73
2023/07/03 06:18:06;;;;;;;28.52;6.65;;;;;;;15.61;85.92;100841.09;5067691;28;20041;-73
2023/07/03 06:20:33;;;;;;;23.65;6.30;;;;;;;15.62;85.84;100840.94;5065851;28;20035;-73
2023/07/03 06:22:58;;;;;;;25.33;6.75;;;;;;;15.64;86.20;100836.25;5089391;28;20111;-74
2023/07/03 06:25:24;;;;;;;22.35;6.10;;;;;;;15.67;86.52;100841.38;5067127;28;20465;-74
2023/07/03 06:27:49;;;;;;;24.92;7.25;;;;;;;15.75;86.09;100837.09;5067492;28;20468;-74
2023/07/03 06:30:15;;;;;;;21.08;5.63;;;;;;;15.78;85.82;100839.50;5087213;28;20464;-75
2023/07/03 06:32:40;;;;;;;23.30;6.00;;;;;;;15.78;84.56;100844.91;5089658;28;20016;-74
2023/07/03 06:35:08;;;;;;;26.40;7.15;;;;;;;15.82;85.04;100840.94;5064853;28;20028;-74
2023/07/03 06:37:34;;;;;;;23.67;6.82;;;;;;;15.87;84.51;100852.19;5086005;28;20035;-74
2023/07/03 06:39:59;;;;;;;22.75;5.75;;;;;;;15.88;83.38;100846.63;5058101;28;20493;-74
2023/07/03 06:42:25;;;;;;;21.52;5.78;;;;;;;15.88;83.37;100852.03;5062824;28;20070;-74
2023/07/03 06:44:50;;;;;;;24.98;5.60;;;;;;;15.92;83.35;100844.47;5069934;28;20541;-74
2023/07/03 06:47:15;;;;;;;24.88;5.75;;;;;;;15.95;83.10;100836.06;5056732;28;20472;-74
2023/07/03 06:49:41;;;;;;;23.90;6.38;;;;;;;16.00;82.81;100836.47;5066911;28;20130;-74
2023/07/03 06:52:08;;;;;;;22.33;7.72;;;;;;;16.05;83.29;100831.44;5067282;28;20188;-75
2023/07/03 06:54:34;;;;;;;27.58;7.78;;;;;;;16.08;81.93;100836.56;5050931;28;20044;-74
2023/07/03 06:56:59;;;;;;;32.72;6.80;;;;;;;16.11;82.50;100834.59;5068049;28;20039;-75
2023/07/03 06:59:25;;;;;;;23.27;7.07;;;;;;;16.14;81.18;100839.69;5069233;28;20028;-72
2023/07/03 07:01:50;;;;;;;24.42;6.18;;;;;;;16.18;82.16;100836.53;5052359;28;20063;-71
2023/07/03 07:04:16;;;;;;;24.88;6.22;;;;;;;16.19;81.01;100840.97;5071539;28;20039;-75
2023/07/03 07:06:41;;;;;;;20.63;4.97;;;;;;;16.25;81.59;100858.47;5068414;28;20105;-74
2023/07/03 07:09:06;;;;;;;20.35;5.75;;;;;;;16.27;80.49;100861.91;5050904;28;20040;-74
2023/07/03 07:11:34;;;;;;;24.35;5.65;;;;;;;16.32;80.44;100862.28;5054293;28;20486;-73
2023/07/03 07:14:03;;;;;;;22.40;5.57;;;;;;;16.35;79.00;100863.88;5069749;28;20028;-75
2023/07/03 07:16:31;;;;;;;26.38;6.32;;;;;;;16.39;78.64;100849.84;5052680;28;20479;-74
2023/07/03 07:19:01;;;;;;;30.13;7.63;;;;;;;16.41;78.24;100858.69;5049804;28;20124;-76
2023/07/03 07:21:30;;;;;;;20.17;5.65;;;;;;;16.42;77.01;100851.41;5054035;28;20467;-73
2023/07/03 07:24:02;;;;;;;25.30;6.43;;;;;;;16.45;76.83;100850.25;5053221;28;20028;-74
2023/07/03 07:26:32;;;;;;;27.55;6.68;;;;;;;16.50;77.36;100847.94;5050920;28;20074;-75
2023/07/03 07:28:58;;;;;;;18.90;5.38;;;;;;;16.54;77.63;100849.34;5051925;28;20115;-73
2023/07/03 07:31:25;;;;;;;24.13;6.60;;;;;;;16.60;77.08;100859.59;5050867;28;20027;-75
2023/07/03 07:33:51;;;;;;;20.80;5.75;;;;;;;16.67;77.34;100851.69;5068969;28;20081;-76
2023/07/03 07:36:19;;;;;;;26.23;6.53;;;;;;;16.74;77.17;100853.63;5071038;28;20480;-73
2023/07/03 07:38:45;;;;;;;18.45;5.38;;;;;;;16.81;74.99;100847.59;5068120;28;20456;-76
2023/07/03 07:41:10;;;;;;;22.30;6.47;;;;;;;16.91;75.05;100859.28;5072183;28;20032;-74
2023/07/03 07:43:36;;;;;;;24.30;5.97;;;;;;;17.05;76.10;100857.91;5072237;28;20177;-73
2023/07/03 07:46:01;;;;;;;18.33;4.97;;;;;;;17.09;72.42;100865.56;5058206;28;20109;-75
2023/07/03 07:48:27;;;;;;;24.35;6.13;;;;;;;17.15;71.97;100865.97;5051641;28;20606;-74
2023/07/03 07:50:52;;;;;;;24.92;5.55;;;;;;;17.15;72.05;100865.97;5074260;28;20408;-74
2023/07/03 07:53:18;;;;;;;20.42;5.25;;;;;;;17.16;72.01;100868.53;5055060;28;20058;-76
2023/07/03 07:55:44;;;;;;;21.77;5.85;;;;;;;17.21;73.44;100868.06;5074285;28;20169;-74
2023/07/03 07:58:09;;;;;;;18.52;5.50;;;;;;;17.27;70.37;100875.59;5054302;28;20032;-74
2023/07/03 08:00:35;;;;;;;20.48;4.90;;;;;;;17.34;70.71;100882.09;5071227;28;20036;-73
2023/07/03 08:03:00;;;;;;;24.38;5.63;;;;;;;17.38;71.15;100875.34;5072344;28;20093;-74
2023/07/03 08:05:26;;;;;;;22.02;4.90;;;;;;;17.41;71.43;100883.19;5055050;28;20032;-75
2023/07/03 08:07:52;;;;;;;15.95;4.10;;;;;;;17.41;70.16;100882.31;5054878;28;20067;-73
2023/07/03 08:10:19;;;;;;;22.83;4.90;;;;;;;17.40;68.56;100894.22;5072609;28;20364;-74
2023/07/03 08:12:44;;;;;;;21.58;4.93;;;;;;;17.38;68.40;100891.66;5071950;28;20387;-76
2023/07/03 08:15:10;;;;;;;20.10;4.75;;;;;;;17.35;68.67;100888.38;5054093;28;21023;-74
2023/07/03 08:17:35;;;;;;;25.05;5.18;;;;;;;17.35;69.06;100889.25;5053052;28;20044;-73
2023/07/03 08:20:01;;;;;;;20.13;5.22;;;;;;;17.33;69.68;100890.41;5050680;28;20027;-74
2023/07/03 08:22:27;;;;;;;19.52;4.82;;;;;;;17.31;70.96;100898.72;5067868;28;20039;-75
2023/07/03 08:24:52;;;;;;;19.92;4.65;;;;;;;17.26;68.77;100901.03;5050573;28;21149;-73
2023/07/03 08:27:21;;;;;;;17.90;4.75;;;;;;;17.26;70.49;100901.91;5052777;28;20024;-74
2023/07/03 08:29:46;;;;;;;18.45;5.00;;;;;;;17.27;69.65;100906.31;5050461;28;20073;-74
2023/07/03 08:32:12;;;;;;;24.30;5.53;;;;;;;17.28;68.42;100905.31;5049970;28;20359;-74
2023/07/03 08:34:37;;;;;;;18.63;5.05;;;;;;;17.29;68.98;100906.16;5053325;28;20016;-75
2023/07/03 08:37:03;;;;;;;23.65;6.32;;;;;;;17.32;69.42;100905.88;5051027;28;20063;-75
2023/07/03 08:39:28;;;;;;;18.60;5.35;;;;;;;17.37;69.02;100902.69;5072119;28;20036;-74
2023/07/03 08:42:13;;;;;;;14.50;4.05;;;;;;;17.41;68.51;100909.47;5069265;28;20032;-74
2023/07/03 08:44:38;;;;;;;20.23;4.95;;;;;;;17.44;68.67;100903.75;5052577;28;20031;-74
2023/07/03 08:47:06;;;;;;;20.67;5.28;;;;;;;17.49;68.09;100916.88;5068860;28;20092;-73
2023/07/03 08:49:33;;;;;;;23.52;5.75;;;;;;;17.51;67.66;100910.28;5067721;28;20360;-76
2023/07/03 08:51:59;;;;;;;25.35;5.68;;;;;;;17.55;69.12;100906.22;5071762;28;20043;-74
2023/07/03 08:54:32;;;;;;;22.33;5.22;;;;;;;17.57;70.41;100909.66;5051083;28;20053;-75
2023/07/03 08:56:58;;;;;;;18.10;4.75;;;;;;;17.49;65.59;100898.69;5050073;28;20032;-73
2023/07/03 08:59:24;;;;;;;22.08;5.30;;;;;;;17.50;67.61;100896.81;5068574;28;20034;-74
2023/07/03 09:02:03;;;;;;;21.83;5.70;;;;;;;17.45;67.92;100905.44;5047193;28;20103;-76
2023/07/03 09:05:02;;;;;;;21.70;4.88;;;;;;;17.50;69.20;100907.69;5063103;28;20142;-74
2023/07/03 09:07:44;;;;;;;23.00;5.50;;;;;;;17.46;67.81;100907.16;5070794;28;20035;-76
2023/07/03 09:10:38;;;;;;;20.70;5.75;;;;;;;17.46;68.17;100907.16;5047730;28;20078;-73
2023/07/03 09:13:16;;;;;;;21.45;5.93;;;;;;;17.51;69.12;100904.84;5073687;28;20051;-73
2023/07/03 09:15:47;;;;;;;22.30;5.88;;;;;;;17.55;67.78;100906.22;5050867;28;20058;-76
2023/07/03 09:18:16;;;;;;;24.35;6.07;;;;;;;17.63;69.22;100909.03;5068552;28;20044;-75
2023/07/03 09:20:43;;;;;;;24.77;6.65;;;;;;;17.67;65.21;100898.66;5071438;28;20036;-75
2023/07/03 09:23:08;;;;;;;24.60;6.85;;;;;;;17.73;64.66;100902.63;5050464;28;20036;-73
2023/07/03 09:25:44;;;;;;;21.45;5.97;;;;;;;17.73;64.94;100900.78;5051777;28;20586;-76
2023/07/03 09:28:10;;;;;;;27.63;6.65;;;;;;;17.72;63.60;100893.63;5068501;28;20084;-75
2023/07/03 09:30:37;;;;;;;20.67;5.95;;;;;;;17.68;66.68;100905.81;5049049;28;20119;-76
2023/07/03 09:33:02;;;;;;;22.35;5.97;;;;;;;17.70;66.02;100914.69;5071518;28;20806;-73
2023/07/03 09:35:37;;;;;;;20.67;6.07;;;;;;;17.70;64.96;100914.69;5058455;28;20029;-74
2023/07/03 09:38:08;;;;;;;20.08;6.28;;;;;;;17.81;64.26;100908.13;5056570;28;20025;-74
2023/07/03 09:40:40;;;;;;;21.25;6.13;;;;;;;17.95;66.77;100895.84;5054665;28;20028;-73
2023/07/03 09:43:18;;;;;;;22.33;7.13;;;;;;;18.06;65.37;100914.63;5073716;28;20708;-74
2023/07/03 09:45:44;;;;;;;21.15;5.38;;;;;;;18.10;62.42;100910.56;5055810;28;20062;-74
2023/07/03 09:48:22;;;;;;;24.08;6.45;;;;;;;18.17;63.34;100902.63;5059012;28;20024;-73
2023/07/03 09:50:47;;;;;;;24.75;6.05;;;;;;;18.31;66.61;100912.06;5062100;28;20028;-74
2023/07/03 09:53:22;;;;;;;23.00;6.07;;;;;;;18.44;62.66;100915.19;5077835;28;20036;-76
2023/07/03 09:55:56;;;;;;;25.05;7.68;;;;;;;18.48;60.73;100913.84;5058057;28;20028;-74
2023/07/03 09:58:27;;;;;;;20.60;6.63;;;;;;;18.43;58.81;100912.63;5077698;28;20056;-75
2023/07/03 10:00:56;;;;;;;18.17;6.53;;;;;;;18.45;59.53;100903.28;5075946;28;20031;-76
2023/07/03 10:03:26;;;;;;;22.13;7.13;;;;;;;18.50;60.40;100913.69;5058192;28;20086;-75
2023/07/03 10:05:55;;;;;;;20.25;5.85;;;;;;;18.51;58.40;100912.66;5075708;28;20443;-74
2023/07/03 10:08:24;;;;;;;22.20;6.72;;;;;;;18.60;61.11;100905.41;5060817;28;20017;-74
2023/07/03 10:10:53;;;;;;;18.85;6.22;;;;;;;18.71;60.31;100906.97;5071825;28;20036;-74
2023/07/03 10:13:23;;;;;;;17.42;6.43;;;;;;;18.84;59.86;100904.63;5067837;28;20020;-74
2023/07/03 10:15:51;;;;;;;17.40;6.40;;;;;;;18.98;59.46;100901.28;5088509;28;20554;-73
2023/07/03 10:18:25;;;;;;;22.02;6.75;;;;;;;19.12;58.62;100909.81;5092020;28;20047;-74
2023/07/03 10:20:51;;;;;;;20.30;5.78;;;;;;;19.13;55.84;100917.00;5090839;28;20030;-74
2023/07/03 10:23:29;;;;;;;18.38;6.00;;;;;;;19.13;57.63;100917.00;5085755;28;20141;-73
2023/07/03 10:26:10;;;;;;;20.08;6.40;;;;;;;19.10;56.58;100922.78;5065587;28;20070;-73
2023/07/03 10:28:43;;;;;;;20.58;6.72;;;;;;;18.99;54.63;100937.53;5074197;28;20028;-74
2023/07/03 10:31:18;;;;;;;20.75;5.85;;;;;;;18.90;54.39;100930.38;5081107;28;20088;-73
2023/07/03 10:33:48;;;;;;;20.20;6.28;;;;;;;18.83;54.01;100944.63;5088742;28;20474;-73
2023/07/03 10:36:19;;;;;;;17.80;6.03;;;;;;;18.89;57.54;100926.81;5072563;28;20102;-75
2023/07/03 10:39:08;;;;;;;21.50;6.25;;;;;;;18.94;55.66;100934.47;5083460;28;20029;-74
2023/07/03 10:41:37;;;;;;;;;;;;;;;18.96;56.89;100932.44;5053214;28;20024;-74
2023/07/03 10:44:10;;;;;;;21.63;5.57;;;;;;;18.81;54.79;100940.34;5071943;28;19965;-73
2023/07/03 10:46:46;;;;;;;18.23;5.57;;;;;;;18.73;54.73;100948.47;5087283;28;20399;-73
2023/07/03 10:49:25;;;;;;;21.10;5.35;;;;;;;18.70;54.08;100952.41;5087574;28;20059;-72
2023/07/03 10:51:59;;;;;;;16.57;5.07;;;;;;;18.71;54.57;100950.53;5097969;28;20027;-73
2023/07/03 10:54:53;;;;;;;17.75;4.05;;;;;;;18.74;53.56;100940.16;5076416;28;20028;-73
2023/07/03 10:57:27;;;;;;;14.82;4.03;;;;;;;18.73;52.05;100938.47;5073547;28;20189;-71
2023/07/03 10:59:58;;;;;;;18.75;4.80;;;;;;;18.80;52.73;100933.19;5091590;28;20028;-72
2023/07/03 11:02:46;;;;;;;19.20;5.57;;;;;;;18.92;53.92;100933.78;5084519;28;20041;-73
2023/07/03 11:05:29;;;;;;;18.67;4.70;;;;;;;18.98;52.77;100923.06;5089269;28;20043;-73
2023/07/03 11:08:08;;;;;;;21.98;5.20;;;;;;;19.10;53.08;100918.16;5072561;28;20039;-76
2023/07/03 11:10:44;;;;;;;23.48;5.15;;;;;;;19.27;54.15;100915.47;5067832;28;20036;-72
2023/07/03 11:13:35;;;;;;;22.05;5.38;;;;;;;19.39;51.96;100930.50;5088405;28;20396;-73
2023/07/03 11:16:13;;;;;;;14.88;4.75;;;;;;;19.38;49.86;100937.78;5063920;28;20027;-73
2023/07/03 11:18:48;;;;;;;21.95;4.97;;;;;;;19.32;49.01;100948.53;5081140;28;20067;-73
2023/07/03 11:21:39;;;;;;;15.57;4.68;;;;;;;19.24;49.47;100934.88;5086458;28;20026;-73
2023/07/03 11:24:16;;;;;;;18.65;4.57;;;;;;;19.15;49.01;100934.88;5079109;28;20028;-73